Terminal Aerodrome Forecast
Issued by NWS

Home | Current Version | Previous Version | Text Only | Print | Product List | Glossary On
Versions: 1 2 3 4 5 6 7 8 9 10 11 12 13 14 15 16 17 18 19 20 21 22
000
FTUS41 KGYX 281120
TAFRKD
TAF
KRKD 281120Z 2812/2912 01012G18KT P6SM BKN025
     FM281300 36012G22KT P6SM OVC050
     FM290000 32009KT P6SM -RA OVC050
     FM290600 35098KT P6SM OVC050
      AMD LTD TO CLD VIS AND WIND=

USA.gov is the U.S. government's official web portal to all federal, state and local government web resources and services.